Time;durP1;ratioP1;P1;durP2;ratioP2;P2;SDS_P1;SDS_P2;PMS_P1;PMS_P2;Temp;Humidity;BMP_temperature;BMP_pressure;BME280_temperature;BME280_humidity;BME280_pressure;Samples;Min_cycle;Max_cycle;Signal;HPM_P1;HPM_P2
2022/03/06 00:00:34;;;;;;;3.10;2.30;;;;;;;-0.33;69.17;96423.34;5037042;28;20220;-73
2022/03/06 00:03:04;;;;;;;3.23;1.53;;;;;;;-0.46;70.21;96425.16;5036491;28;20236;-72
2022/03/06 00:05:30;;;;;;;6.70;1.57;;;;;;;-0.52;70.25;96428.16;5037477;28;20197;-73
2022/03/06 00:07:59;;;;;;;2.83;2.00;;;;;;;-0.48;70.40;96421.00;5035197;28;20225;-73
2022/03/06 00:10:27;;;;;;;7.10;2.73;;;;;;;-0.24;70.98;96419.28;5037868;28;20202;-72
2022/03/06 00:12:53;;;;;;;5.97;2.60;;;;;;;-0.35;70.41;96422.63;5036749;28;20278;-72
2022/03/06 00:15:21;;;;;;;4.50;2.53;;;;;;;-0.33;69.46;96422.50;5035952;28;20201;-72
2022/03/06 00:17:48;;;;;;;4.60;1.70;;;;;;;-0.38;69.97;96428.03;5037107;28;20322;-72
2022/03/06 00:20:14;;;;;;;6.17;3.53;;;;;;;-0.46;70.92;96422.56;5037903;28;20208;-73
2022/03/06 00:22:40;;;;;;;10.07;2.30;;;;;;;-0.39;71.52;96418.59;5036520;28;20730;-73
2022/03/06 00:25:09;;;;;;;6.67;2.10;;;;;;;-0.23;71.57;96423.53;5037173;28;20209;-72
2022/03/06 00:27:36;;;;;;;7.93;2.03;;;;;;;-0.30;72.44;96427.50;5037267;28;20209;-73
2022/03/06 00:30:05;;;;;;;3.50;1.97;;;;;;;-0.26;72.43;96428.94;5037567;28;20216;-73
2022/03/06 00:32:31;;;;;;;2.27;1.23;;;;;;;-0.32;72.33;96431.94;5036114;28;20232;-73
2022/03/06 00:34:58;;;;;;;4.10;2.57;;;;;;;-0.42;72.15;96428.31;5036933;28;20201;-73
2022/03/06 00:37:24;;;;;;;5.03;2.50;;;;;;;-0.28;72.26;96435.97;5037272;28;20232;-72
2022/03/06 00:39:51;;;;;;;5.47;1.67;;;;;;;-0.34;72.44;96433.81;5036671;28;20205;-73
2022/03/06 00:42:17;;;;;;;11.30;3.90;;;;;;;-0.30;72.50;96440.44;5035517;28;20804;-73
2022/03/06 00:44:45;;;;;;;2.67;2.17;;;;;;;-0.21;72.99;96438.03;5037091;28;20209;-73
2022/03/06 00:47:11;;;;;;;5.73;1.87;;;;;;;-0.44;73.37;96443.16;5036638;28;20220;-73
2022/03/06 00:49:38;;;;;;;3.47;2.60;;;;;;;-0.37;72.85;96436.59;5037150;28;20266;-72
2022/03/06 00:52:05;;;;;;;3.87;2.27;;;;;;;-0.23;72.74;96431.28;5036701;28;20236;-73
2022/03/06 00:54:31;;;;;;;5.73;2.67;;;;;;;-0.33;73.26;96436.31;5036811;28;20228;-73
2022/03/06 00:56:58;;;;;;;8.93;2.90;;;;;;;-0.27;73.26;96437.63;5036128;28;20205;-73
2022/03/06 00:59:24;;;;;;;7.67;3.37;;;;;;;-0.30;73.27;96437.84;5036615;28;20232;-73
2022/03/06 01:01:52;;;;;;;2.53;2.17;;;;;;;-0.14;73.73;96434.06;5036071;28;20236;-73
2022/03/06 01:04:19;;;;;;;1.87;1.77;;;;;;;-0.20;73.39;96438.88;5036453;28;20201;-73
2022/03/06 01:06:46;;;;;;;2.43;1.60;;;;;;;-0.27;73.84;96441.03;5036547;28;20209;-73
2022/03/06 01:09:13;;;;;;;7.47;3.47;;;;;;;-0.37;72.57;96437.44;5034891;28;20555;-73
2022/03/06 01:11:39;;;;;;;3.20;2.50;;;;;;;-0.27;73.21;96443.63;5034753;28;20213;-73
2022/03/06 01:14:06;;;;;;;10.70;3.17;;;;;;;-0.37;73.02;96442.63;5036054;28;20215;-72
2022/03/06 01:16:32;;;;;;;1.97;1.53;;;;;;;-0.29;72.65;96444.69;5036655;28;20232;-72
2022/03/06 01:19:00;;;;;;;2.27;1.93;;;;;;;-0.13;72.46;96443.47;5036568;28;20293;-72
2022/03/06 01:21:27;;;;;;;3.97;2.23;;;;;;;-0.40;73.09;96445.41;5036544;28;20201;-72
2022/03/06 01:23:53;;;;;;;8.27;2.60;;;;;;;-0.35;73.39;96445.09;5035175;28;20205;-72
2022/03/06 01:26:20;;;;;;;3.97;3.00;;;;;;;-0.45;74.32;96444.09;5036288;28;20201;-71
2022/03/06 01:28:46;;;;;;;2.83;2.60;;;;;;;-0.44;74.55;96456.09;5036441;28;20209;-72
2022/03/06 01:31:13;;;;;;;6.70;2.77;;;;;;;-0.35;74.29;96458.03;5036292;28;20205;-71
2022/03/06 01:33:40;;;;;;;2.43;1.47;;;;;;;-0.47;74.86;96456.28;5035825;28;20229;-71
2022/03/06 01:36:08;;;;;;;5.90;2.10;;;;;;;-0.29;74.85;96455.84;5036439;28;20205;-71
2022/03/06 01:38:34;;;;;;;11.73;3.43;;;;;;;-0.43;75.22;96458.56;5035808;28;20795;-71
2022/03/06 01:41:00;;;;;;;12.27;2.30;;;;;;;-0.46;75.05;96460.53;5036316;28;20209;-71
2022/03/06 01:43:27;;;;;;;5.40;2.43;;;;;;;-0.53;76.33;96452.38;5035596;28;20595;-71
2022/03/06 01:45:53;;;;;;;2.20;1.43;;;;;;;-0.49;76.26;96455.59;5036067;28;21115;-71
2022/03/06 01:48:20;;;;;;;1.13;1.13;;;;;;;-0.50;76.31;96451.34;5036756;28;20197;-71
2022/03/06 01:50:47;;;;;;;8.73;4.23;;;;;;;-0.53;76.37;96447.19;5036677;28;20215;-71
2022/03/06 01:53:14;;;;;;;4.10;2.17;;;;;;;-0.39;77.04;96438.50;5034825;28;20225;-71
2022/03/06 01:55:42;;;;;;;4.07;2.43;;;;;;;-0.37;76.57;96445.22;5036709;28;20231;-71
2022/03/06 01:58:10;;;;;;;5.10;2.10;;;;;;;-0.31;75.60;96436.19;5039614;28;20224;-71
2022/03/06 02:00:40;;;;;;;1.57;1.47;;;;;;;-0.26;75.21;96436.69;5039470;28;20208;-72
2022/03/06 02:03:07;;;;;;;2.37;2.17;;;;;;;-0.29;74.64;96434.34;5038558;28;20319;-71
2022/03/06 02:05:34;;;;;;;4.47;2.53;;;;;;;-0.54;74.13;96431.78;5039668;28;20204;-71
2022/03/06 02:08:00;;;;;;;4.07;1.77;;;;;;;-0.35;73.49;96422.63;5036862;28;20213;-71
2022/03/06 02:10:28;;;;;;;7.53;2.77;;;;;;;-0.30;73.48;96432.66;5039406;28;20729;-72
2022/03/06 02:12:55;;;;;;;5.00;3.57;;;;;;;-0.52;73.04;96432.50;5038899;28;20228;-71
2022/03/06 02:15:21;;;;;;;3.97;1.80;;;;;;;-0.52;73.36;96433.31;5039875;28;20713;-71
2022/03/06 02:17:48;;;;;;;2.73;2.07;;;;;;;-0.59;73.29;96428.69;5039420;28;20614;-71
2022/03/06 02:20:16;;;;;;;4.00;3.60;;;;;;;-0.52;72.45;96435.09;5039488;28;20209;-71
2022/03/06 02:22:46;;;;;;;6.80;2.70;;;;;;;-0.52;72.75;96438.50;5038636;28;20239;-71
2022/03/06 02:25:16;;;;;;;2.40;1.47;;;;;;;-0.62;73.21;96441.84;5039286;28;20317;-71
2022/03/06 02:27:43;;;;;;;3.33;2.27;;;;;;;-0.70;72.30;96438.09;5039005;28;20213;-71
2022/03/06 02:30:12;;;;;;;6.83;1.63;;;;;;;-0.72;72.95;96435.63;5039984;28;20205;-71
2022/03/06 02:32:40;;;;;;;3.83;2.50;;;;;;;-0.86;73.94;96433.16;5038469;28;21010;-71
2022/03/06 02:35:08;;;;;;;3.47;3.17;;;;;;;-0.91;73.34;96437.00;5039126;28;20839;-71
2022/03/06 02:37:35;;;;;;;4.83;1.97;;;;;;;-0.97;72.94;96440.81;5039460;28;20217;-71
2022/03/06 02:40:06;;;;;;;1.73;1.63;;;;;;;-0.88;73.69;96441.94;5039060;28;20197;-71
2022/03/06 02:42:34;;;;;;;11.77;2.93;;;;;;;-0.94;72.83;96435.44;5038123;28;20231;-71
2022/03/06 02:45:02;;;;;;;2.17;1.93;;;;;;;-0.86;73.54;96438.31;5039044;28;20221;-72
2022/03/06 02:47:29;;;;;;;7.90;3.13;;;;;;;-1.01;72.52;96436.75;5039044;28;20209;-71
2022/03/06 02:49:55;;;;;;;2.80;1.57;;;;;;;-0.87;72.79;96430.66;5038859;28;20202;-71
2022/03/06 02:52:22;;;;;;;5.70;3.27;;;;;;;-0.83;73.75;96432.94;5038376;28;20225;-72
2022/03/06 02:54:49;;;;;;;3.87;2.63;;;;;;;-0.81;73.50;96430.28;5038290;28;20687;-71
2022/03/06 02:57:17;;;;;;;4.60;2.60;;;;;;;-0.68;72.67;96428.50;5038754;28;20211;-72
2022/03/06 02:59:43;;;;;;;6.47;2.87;;;;;;;-0.76;73.03;96434.19;5038711;28;20225;-71
2022/03/06 03:02:10;;;;;;;6.23;2.63;;;;;;;-0.78;73.71;96425.69;5038460;28;20277;-71
2022/03/06 03:04:38;;;;;;;7.23;2.57;;;;;;;-0.59;73.25;96428.69;5038396;28;20209;-72
2022/03/06 03:07:06;;;;;;;2.23;1.83;;;;;;;-0.68;73.38;96428.50;5038846;28;20204;-71
2022/03/06 03:09:33;;;;;;;4.90;2.33;;;;;;;-0.84;73.86;96426.13;5035329;28;20692;-71
2022/03/06 03:11:59;;;;;;;2.67;2.40;;;;;;;-0.81;74.51;96427.69;5037902;28;20240;-71
2022/03/06 03:14:31;;;;;;;6.57;2.17;;;;;;;-0.64;75.01;96423.00;5037249;28;20579;-71
2022/03/06 03:16:58;;;;;;;3.30;2.03;;;;;;;-0.75;74.44;96433.25;5039331;28;20296;-71
2022/03/06 03:19:24;;;;;;;4.17;2.40;;;;;;;-0.68;74.59;96431.91;5038391;28;20236;-71
2022/03/06 03:21:51;;;;;;;5.80;2.60;;;;;;;-0.79;74.54;96434.41;5038381;28;20613;-72
2022/03/06 03:24:17;;;;;;;1.63;1.50;;;;;;;-0.77;72.76;96434.28;5034392;28;20204;-71
2022/03/06 03:26:44;;;;;;;13.33;3.17;;;;;;;-0.90;73.26;96431.72;5039259;28;20215;-71
2022/03/06 03:29:10;;;;;;;3.07;2.47;;;;;;;-0.83;71.47;96422.59;5038701;28;20208;-71
2022/03/06 03:31:39;;;;;;;2.37;2.17;;;;;;;-0.82;71.25;96426.84;5038423;28;20657;-71
2022/03/06 03:34:05;;;;;;;1.47;1.37;;;;;;;-1.10;71.51;96428.81;5038068;28;21045;-71
2022/03/06 03:36:32;;;;;;;4.20;2.63;;;;;;;-1.28;71.86;96429.22;5038748;28;20205;-71
2022/03/06 03:38:58;;;;;;;1.93;1.57;;;;;;;-1.22;71.91;96427.88;5038629;28;20230;-71
2022/03/06 03:41:25;;;;;;;8.23;4.07;;;;;;;-1.26;72.75;96438.53;5038772;28;20632;-71
2022/03/06 03:43:52;;;;;;;4.47;2.87;;;;;;;-1.26;72.88;96437.69;5037704;28;20241;-71
2022/03/06 03:46:19;;;;;;;4.90;2.43;;;;;;;-1.34;73.26;96439.94;5038591;28;20232;-71
2022/03/06 03:48:47;;;;;;;3.07;2.00;;;;;;;-1.20;73.36;96446.69;5038562;28;20689;-71
2022/03/06 03:51:14;;;;;;;2.83;2.27;;;;;;;-1.27;73.78;96442.03;5037933;28;20213;-71
2022/03/06 03:53:41;;;;;;;8.37;3.00;;;;;;;-1.32;73.82;96448.41;5037594;28;20233;-71
2022/03/06 03:56:08;;;;;;;2.73;1.53;;;;;;;-1.29;74.06;96458.56;5038627;28;20212;-72
2022/03/06 03:58:35;;;;;;;2.17;1.97;;;;;;;-1.26;74.66;96456.63;5038183;28;20664;-71
2022/03/06 04:01:02;;;;;;;8.57;2.73;;;;;;;-1.34;75.46;96458.03;5038047;28;20207;-72
2022/03/06 04:03:28;;;;;;;2.00;1.57;;;;;;;-1.41;75.65;96457.63;5037444;28;20228;-71
2022/03/06 04:05:56;;;;;;;6.93;2.90;;;;;;;-1.27;76.75;96460.13;5037748;28;20582;-71
2022/03/06 04:08:23;;;;;;;4.47;3.03;;;;;;;-1.42;76.62;96470.63;5034651;28;20205;-71
2022/03/06 04:10:49;;;;;;;4.57;2.77;;;;;;;-1.49;77.19;96471.94;5037929;28;20208;-72
2022/03/06 04:13:16;;;;;;;3.77;2.03;;;;;;;-1.41;76.35;96460.19;5037660;28;20228;-71
2022/03/06 04:15:45;;;;;;;2.83;2.13;;;;;;;-1.26;76.00;96460.94;5037731;28;20213;-71
2022/03/06 04:18:11;;;;;;;5.13;2.60;;;;;;;-1.19;75.41;96465.59;5037614;28;20277;-72
2022/03/06 04:20:38;;;;;;;3.80;2.23;;;;;;;-1.16;75.81;96466.25;5037822;28;20207;-72
2022/03/06 04:23:05;;;;;;;4.67;1.03;;;;;;;-1.02;76.00;96458.41;5036990;28;20237;-72
2022/03/06 04:25:32;;;;;;;4.67;2.53;;;;;;;-1.17;75.87;96464.59;5037746;28;20208;-72
2022/03/06 04:27:58;;;;;;;9.00;4.10;;;;;;;-1.10;76.55;96471.00;5037411;28;20603;-72
2022/03/06 04:30:25;;;;;;;8.33;3.77;;;;;;;-1.14;76.40;96469.53;5037422;28;20201;-72
2022/03/06 04:32:52;;;;;;;4.20;2.23;;;;;;;-1.03;76.14;96467.09;5037159;28;20227;-72
2022/03/06 04:35:19;;;;;;;0.80;0.80;;;;;;;-1.13;76.38;96465.22;5038359;28;20205;-72
2022/03/06 04:37:45;;;;;;;2.67;1.87;;;;;;;-0.95;76.16;96459.63;5037557;28;20252;-72
2022/03/06 04:40:13;;;;;;;3.53;2.93;;;;;;;-0.82;76.01;96465.63;5036751;28;20234;-72
2022/03/06 04:42:40;;;;;;;3.07;2.47;;;;;;;-0.87;76.54;96467.69;5036734;28;20223;-71
2022/03/06 04:45:08;;;;;;;7.53;3.33;;;;;;;-0.78;76.35;96464.50;5037584;28;20205;-72
2022/03/06 04:47:35;;;;;;;6.10;3.53;;;;;;;-0.92;75.91;96469.75;5037257;28;20211;-72
2022/03/06 04:50:02;;;;;;;1.03;1.03;;;;;;;-0.74;75.61;96468.53;5037153;28;20290;-71
2022/03/06 04:52:28;;;;;;;2.43;0.97;;;;;;;-0.86;75.52;96468.53;5036156;28;20236;-72
2022/03/06 04:54:55;;;;;;;6.37;2.87;;;;;;;-0.90;75.28;96478.25;5037095;28;20209;-71
2022/03/06 04:57:23;;;;;;;4.77;2.37;;;;;;;-0.77;75.31;96473.91;5037119;28;20201;-72
2022/03/06 04:59:49;;;;;;;5.20;2.87;;;;;;;-0.90;75.47;96480.84;5036949;28;20239;-72
2022/03/06 05:02:16;;;;;;;4.00;1.10;;;;;;;-0.94;75.80;96476.81;5036097;28;20590;-71
2022/03/06 05:04:42;;;;;;;3.67;1.20;;;;;;;-0.96;75.04;96486.41;5037290;28;20206;-72
2022/03/06 05:07:09;;;;;;;4.73;2.73;;;;;;;-0.92;74.65;96485.28;5036919;28;20591;-72
2022/03/06 05:09:35;;;;;;;3.17;2.73;;;;;;;-1.00;73.77;96490.13;5033986;28;20213;-72
2022/03/06 05:12:02;;;;;;;3.03;2.27;;;;;;;-1.09;73.63;96492.53;5036668;28;20314;-73
2022/03/06 05:14:29;;;;;;;2.57;1.93;;;;;;;-1.23;73.21;96485.66;5036392;28;20217;-72
2022/03/06 05:16:56;;;;;;;1.97;1.77;;;;;;;-1.31;72.76;96491.44;5036568;28;21196;-72
2022/03/06 05:19:22;;;;;;;2.73;2.53;;;;;;;-1.44;74.25;96488.84;5036622;28;20265;-72
2022/03/06 05:21:49;;;;;;;3.03;1.63;;;;;;;-1.34;73.96;96489.06;5036739;28;20225;-72
2022/03/06 05:24:15;;;;;;;2.97;1.90;;;;;;;-1.40;74.40;96492.88;5035794;28;20215;-72
2022/03/06 05:26:42;;;;;;;1.47;1.37;;;;;;;-1.33;74.77;96488.94;5036777;28;20201;-72
2022/03/06 05:29:08;;;;;;;4.63;2.63;;;;;;;-1.33;74.68;96493.31;5036642;28;20197;-72
2022/03/06 05:31:36;;;;;;;2.63;2.43;;;;;;;-1.15;74.37;96485.97;5036069;28;20293;-72
2022/03/06 05:34:03;;;;;;;2.47;2.23;;;;;;;-1.25;74.55;96496.22;5036009;28;20210;-72
2022/03/06 05:36:29;;;;;;;3.03;2.10;;;;;;;-1.32;75.26;96490.59;5036997;28;20231;-72
2022/03/06 05:38:56;;;;;;;3.83;2.77;;;;;;;-1.29;74.69;96494.75;5036822;28;20239;-72
2022/03/06 05:41:22;;;;;;;4.40;2.03;;;;;;;-1.29;74.69;96497.34;5036443;28;20707;-71
2022/03/06 05:43:49;;;;;;;4.20;2.43;;;;;;;-1.32;73.91;96494.94;5035817;28;20226;-72
2022/03/06 05:46:15;;;;;;;2.40;2.20;;;;;;;-1.46;74.36;96497.63;5036195;28;20477;-72
2022/03/06 05:48:43;;;;;;;1.47;1.37;;;;;;;-1.27;74.49;96498.91;5049223;28;20212;-72
2022/03/06 05:51:10;;;;;;;4.93;2.87;;;;;;;-1.30;74.41;96498.25;5052011;28;20207;-72
2022/03/06 05:53:37;;;;;;;2.27;2.07;;;;;;;-1.31;74.34;96505.19;5051819;28;20224;-72
2022/03/06 05:56:04;;;;;;;8.77;3.67;;;;;;;-1.43;73.86;96505.16;5051903;28;20223;-72
2022/03/06 05:58:30;;;;;;;1.60;0.97;;;;;;;-1.58;73.99;96506.97;5051920;28;20214;-72
2022/03/06 06:00:57;;;;;;;8.03;3.40;;;;;;;-1.57;73.60;96508.59;5051956;28;20222;-72
2022/03/06 06:03:25;;;;;;;6.73;3.77;;;;;;;-1.68;74.24;96507.63;5051497;28;20213;-72
2022/03/06 06:05:53;;;;;;;1.90;1.47;;;;;;;-1.42;74.10;96509.41;5051639;28;20240;-72
2022/03/06 06:08:19;;;;;;;2.60;2.07;;;;;;;-1.47;73.67;96514.03;5051458;28;20208;-72
2022/03/06 06:10:46;;;;;;;3.07;2.43;;;;;;;-1.49;73.88;96513.28;5051875;28;20208;-72
2022/03/06 06:13:14;;;;;;;6.20;1.60;;;;;;;-1.51;74.07;96510.81;5050983;28;20608;-72
2022/03/06 06:15:43;;;;;;;4.20;2.40;;;;;;;-1.41;73.59;96511.03;5043361;28;20606;-72
2022/03/06 06:18:09;;;;;;;6.43;3.07;;;;;;;-1.30;74.62;96504.25;5047632;28;20212;-72
2022/03/06 06:20:36;;;;;;;1.73;1.20;;;;;;;-1.34;75.67;96518.31;5048019;28;20221;-72
2022/03/06 06:23:04;;;;;;;2.30;2.03;;;;;;;-1.16;76.25;96514.50;5047881;28;20309;-72
2022/03/06 06:25:31;;;;;;;3.43;1.53;;;;;;;-1.19;75.80;96518.13;5047349;28;20205;-72
2022/03/06 06:27:58;;;;;;;4.53;2.87;;;;;;;-1.19;76.00;96515.53;5048073;28;20232;-72
2022/03/06 06:30:25;;;;;;;5.93;3.33;;;;;;;-1.07;76.18;96519.94;5048795;28;20207;-72
2022/03/06 06:32:51;;;;;;;5.67;2.93;;;;;;;-1.15;77.70;96522.16;5047724;28;20225;-72
2022/03/06 06:35:18;;;;;;;1.67;1.53;;;;;;;-1.16;78.32;96515.38;5045366;28;20198;-72
2022/03/06 06:37:44;;;;;;;3.67;2.60;;;;;;;-1.21;79.44;96524.31;5048114;28;20212;-72
2022/03/06 06:40:12;;;;;;;3.80;2.47;;;;;;;-1.02;79.76;96525.63;5048278;28;20228;-72
2022/03/06 06:42:39;;;;;;;3.73;2.87;;;;;;;-1.11;80.22;96536.56;5047820;28;20722;-72
2022/03/06 06:45:06;;;;;;;3.00;2.27;;;;;;;-0.97;80.15;96536.50;5050863;28;20216;-72
2022/03/06 06:47:33;;;;;;;2.10;1.90;;;;;;;-0.91;80.27;96535.25;5052592;28;20676;-72
2022/03/06 06:49:59;;;;;;;15.13;3.47;;;;;;;-0.98;80.34;96529.66;5052547;28;20223;-72
2022/03/06 06:52:26;;;;;;;3.50;2.33;;;;;;;-0.77;79.97;96542.94;5052755;28;20572;-72
2022/03/06 06:54:52;;;;;;;7.53;3.87;;;;;;;-0.60;80.00;96533.94;5048764;28;20215;-72
2022/03/06 06:57:20;;;;;;;2.17;1.80;;;;;;;-0.27;79.31;96534.22;5052786;28;20213;-72
2022/03/06 06:59:46;;;;;;;8.43;4.07;;;;;;;-0.38;79.46;96533.31;5044682;28;20218;-72
2022/03/06 07:02:13;;;;;;;7.60;1.87;;;;;;;-0.35;80.15;96538.28;5046748;28;20267;-72
2022/03/06 07:04:40;;;;;;;2.57;2.27;;;;;;;-0.12;79.58;96535.78;5052536;28;20197;-72
2022/03/06 07:07:06;;;;;;;7.87;2.93;;;;;;;-0.07;79.72;96541.47;5052257;28;20208;-72
2022/03/06 07:09:32;;;;;;;6.53;3.77;;;;;;;-0.14;79.34;96542.00;5052248;28;20215;-72
2022/03/06 07:11:59;;;;;;;3.37;2.37;;;;;;;0.00;80.21;96545.31;5051935;28;20232;-72
2022/03/06 07:14:27;;;;;;;7.30;2.67;;;;;;;0.31;79.34;96544.81;5052040;28;20212;-72
2022/03/06 07:16:53;;;;;;;11.20;2.50;;;;;;;0.20;79.38;96545.53;5052465;28;20591;-72
2022/03/06 07:19:20;;;;;;;2.43;2.23;;;;;;;0.19;79.80;96554.28;5051885;28;20598;-72
2022/03/06 07:21:46;;;;;;;11.63;3.27;;;;;;;0.28;79.63;96545.84;5051871;28;20201;-72
2022/03/06 07:24:13;;;;;;;7.67;3.77;;;;;;;0.31;79.55;96547.41;5051425;28;20209;-72
2022/03/06 07:26:39;;;;;;;7.37;2.40;;;;;;;0.40;79.33;96550.16;5051421;28;20685;-72
2022/03/06 07:29:06;;;;;;;21.77;2.27;;;;;;;0.44;80.61;96549.00;5052061;28;20224;-72
2022/03/06 07:31:33;;;;;;;6.03;3.83;;;;;;;0.85;79.59;96544.28;5051963;28;20201;-72
2022/03/06 07:34:00;;;;;;;4.97;3.43;;;;;;;0.80;78.99;96543.78;5051379;28;20213;-72
2022/03/06 07:36:27;;;;;;;3.87;3.10;;;;;;;0.77;79.13;96550.00;5051211;28;20201;-72
2022/03/06 07:38:53;;;;;;;5.80;2.80;;;;;;;0.87;78.09;96545.00;5051638;28;20209;-72
2022/03/06 07:41:20;;;;;;;9.43;2.53;;;;;;;1.00;77.63;96545.75;5048559;28;20236;-72
2022/03/06 07:43:46;;;;;;;3.13;2.83;;;;;;;0.85;77.17;96552.06;5050677;28;20232;-72
2022/03/06 07:46:13;;;;;;;3.43;3.13;;;;;;;0.98;77.58;96542.44;5051075;28;20209;-72
2022/03/06 07:48:40;;;;;;;10.73;2.47;;;;;;;1.10;76.25;96551.94;5050966;28;20209;-72
2022/03/06 07:51:07;;;;;;;6.40;2.63;;;;;;;1.11;76.61;96551.81;5050605;28;20197;-72
2022/03/06 07:53:33;;;;;;;11.70;3.23;;;;;;;1.31;76.78;96546.81;5050001;28;20764;-72
2022/03/06 07:56:00;;;;;;;7.70;4.17;;;;;;;1.58;75.30;96549.09;5049736;28;20681;-72
2022/03/06 07:58:26;;;;;;;14.03;2.47;;;;;;;1.64;74.85;96546.84;5050768;28;20193;-72
2022/03/06 08:00:53;;;;;;;11.63;3.93;;;;;;;1.36;74.19;96543.84;5049750;28;20704;-72
2022/03/06 08:03:20;;;;;;;6.00;2.83;;;;;;;1.54;74.18;96543.31;5049916;28;20216;-72
2022/03/06 08:05:47;;;;;;;4.67;2.93;;;;;;;1.71;73.25;96544.66;5050178;28;20212;-72
2022/03/06 08:08:14;;;;;;;4.47;3.10;;;;;;;2.05;72.69;96544.53;5051029;28;20213;-72
2022/03/06 08:10:40;;;;;;;7.10;3.83;;;;;;;1.97;73.82;96541.69;5050688;28;20204;-72
2022/03/06 08:13:07;;;;;;;8.20;4.00;;;;;;;2.16;71.14;96549.72;5048621;28;20613;-72
2022/03/06 08:15:33;;;;;;;7.37;2.73;;;;;;;1.96;71.69;96545.22;5049427;28;20201;-72
2022/03/06 08:18:00;;;;;;;5.53;3.77;;;;;;;2.10;72.35;96547.59;5033744;28;20218;-72
2022/03/06 08:20:26;;;;;;;12.00;4.57;;;;;;;2.13;71.71;96548.19;5044772;28;20312;-72
2022/03/06 08:22:54;;;;;;;6.20;3.27;;;;;;;2.19;70.74;96546.88;5049987;28;20232;-72
2022/03/06 08:25:21;;;;;;;2.17;1.77;;;;;;;2.34;71.60;96543.09;5050027;28;20205;-72
2022/03/06 08:27:47;;;;;;;5.40;2.63;;;;;;;2.44;69.84;96548.28;5044857;28;20245;-72
2022/03/06 08:30:14;;;;;;;11.23;3.60;;;;;;;2.50;69.05;96542.59;5045239;28;20282;-72
2022/03/06 08:32:41;;;;;;;10.17;3.00;;;;;;;2.26;68.64;96548.09;5049246;28;20223;-72
2022/03/06 08:35:08;;;;;;;2.83;1.73;;;;;;;2.65;68.43;96545.78;5049475;28;20668;-72
2022/03/06 08:37:35;;;;;;;9.30;2.77;;;;;;;2.64;67.62;96550.13;5049519;28;20211;-72
2022/03/06 08:40:05;;;;;;;4.63;2.60;;;;;;;2.98;66.68;96549.09;5050279;28;20215;-72
2022/03/06 08:42:31;;;;;;;3.57;2.57;;;;;;;2.93;64.45;96546.03;5048878;28;20217;-72
2022/03/06 08:44:58;;;;;;;4.87;3.23;;;;;;;2.77;66.41;96556.00;5049541;28;20201;-72
2022/03/06 08:47:24;;;;;;;7.63;3.83;;;;;;;3.00;65.85;96554.19;5049474;28;20203;-72
2022/03/06 08:49:51;;;;;;;7.57;4.37;;;;;;;2.96;66.06;96551.00;5049140;28;20201;-72
2022/03/06 08:52:18;;;;;;;4.37;2.87;;;;;;;3.07;64.53;96549.16;5047728;28;20228;-72
2022/03/06 08:54:44;;;;;;;4.63;4.10;;;;;;;2.85;65.21;96548.44;5048197;28;20234;-72
2022/03/06 08:57:12;;;;;;;2.60;1.70;;;;;;;3.19;65.20;96539.53;5049232;28;20211;-72
2022/03/06 08:59:39;;;;;;;5.23;2.80;;;;;;;3.01;63.62;96544.44;5048556;28;20638;-72
2022/03/06 09:02:05;;;;;;;4.83;2.33;;;;;;;3.35;61.40;96539.94;5048121;28;20600;-72
2022/03/06 09:04:33;;;;;;;4.37;2.57;;;;;;;3.44;63.10;96536.59;5050100;28;20204;-72
2022/03/06 09:07:00;;;;;;;9.83;3.97;;;;;;;3.44;63.62;96542.59;5048692;28;20196;-72
2022/03/06 09:09:26;;;;;;;5.93;3.63;;;;;;;3.60;60.93;96540.38;5049928;28;20249;-72
2022/03/06 09:11:53;;;;;;;4.13;3.50;;;;;;;3.58;59.09;96538.84;5047915;28;20215;-72
2022/03/06 09:14:21;;;;;;;4.07;2.47;;;;;;;4.05;60.66;96539.09;5048447;28;20203;-72
2022/03/06 09:16:48;;;;;;;4.27;2.77;;;;;;;4.00;59.55;96546.53;5048205;28;20211;-72
2022/03/06 09:19:14;;;;;;;6.27;2.77;;;;;;;3.94;58.59;96540.03;5046791;28;20220;-72
2022/03/06 09:21:43;;;;;;;6.40;3.13;;;;;;;3.93;59.00;96545.38;5047229;28;20223;-72
2022/03/06 09:24:10;;;;;;;3.77;2.87;;;;;;;4.33;58.10;96539.25;5046672;28;20244;-72
2022/03/06 09:26:37;;;;;;;6.87;3.33;;;;;;;4.29;57.84;96533.47;5048780;28;20677;-72
2022/03/06 09:29:05;;;;;;;4.77;2.27;;;;;;;4.26;56.48;96544.16;5048504;28;20835;-72
2022/03/06 09:31:33;;;;;;;5.33;2.83;;;;;;;4.18;55.65;96535.34;5047377;28;20277;-72
2022/03/06 09:33:59;;;;;;;6.90;2.27;;;;;;;4.37;55.62;96540.63;5047631;28;20201;-72
2022/03/06 09:36:26;;;;;;;4.70;1.97;;;;;;;4.30;56.06;96537.72;5047838;28;20207;-72
2022/03/06 09:38:53;;;;;;;6.47;2.20;;;;;;;4.31;54.08;96534.13;5048830;28;20578;-72
2022/03/06 09:41:25;;;;;;;11.10;2.47;;;;;;;4.49;52.98;96534.34;5048115;28;20236;-72
2022/03/06 09:43:55;;;;;;;3.93;2.83;;;;;;;4.42;54.44;96538.47;5049237;28;20244;-72
2022/03/06 09:46:22;;;;;;;9.97;2.90;;;;;;;4.87;54.14;96536.09;5049419;28;20694;-72
2022/03/06 09:48:50;;;;;;;3.97;2.20;;;;;;;4.44;53.19;96531.31;5049955;28;20201;-72
2022/03/06 09:51:17;;;;;;;4.23;2.50;;;;;;;5.07;51.11;96527.28;5049179;28;20201;-72
2022/03/06 09:53:44;;;;;;;6.57;2.33;;;;;;;4.83;50.79;96526.03;5048861;28;20220;-72
2022/03/06 09:56:10;;;;;;;3.50;2.40;;;;;;;5.08;49.97;96534.19;5050050;28;20247;-72
2022/03/06 09:58:37;;;;;;;2.30;1.93;;;;;;;4.78;50.49;96535.25;5049521;28;20212;-71
2022/03/06 10:01:04;;;;;;;2.97;2.43;;;;;;;5.00;50.13;96526.22;5050473;28;20256;-71
2022/03/06 10:03:35;;;;;;;4.57;2.77;;;;;;;5.11;50.52;96533.91;5049672;28;20225;-71
2022/03/06 10:06:07;;;;;;;7.07;2.83;;;;;;;5.28;48.73;96530.59;5049561;28;20228;-71
2022/03/06 10:08:34;;;;;;;5.57;2.50;;;;;;;5.15;49.36;96522.22;5047846;28;20334;-71
2022/03/06 10:11:02;;;;;;;3.77;2.73;;;;;;;5.18;48.08;96529.78;5043795;28;20680;-71
2022/03/06 10:13:31;;;;;;;5.70;2.67;;;;;;;4.93;47.70;96525.09;5048350;28;20799;-71
2022/03/06 10:16:04;;;;;;;5.67;2.27;;;;;;;5.17;47.49;96532.53;5046185;28;20201;-71
2022/03/06 10:18:32;;;;;;;5.10;2.00;;;;;;;5.47;45.96;96530.59;5050348;28;20212;-71
2022/03/06 10:21:05;;;;;;;7.63;2.93;;;;;;;5.77;46.65;96523.41;5052243;28;20213;-71
2022/03/06 10:23:33;;;;;;;5.83;2.87;;;;;;;5.51;47.31;96522.34;5052390;28;20229;-71
2022/03/06 10:26:00;;;;;;;4.13;2.47;;;;;;;5.25;47.53;96524.84;5051680;28;20213;-71
2022/03/06 10:28:27;;;;;;;9.33;2.30;;;;;;;5.75;45.19;96519.25;5051775;28;20209;-71
2022/03/06 10:30:54;;;;;;;8.87;2.97;;;;;;;5.70;46.68;96522.31;5052654;28;20692;-71
2022/03/06 10:33:23;;;;;;;9.47;2.83;;;;;;;5.68;46.89;96526.03;5052047;28;20701;-71
2022/03/06 10:35:51;;;;;;;4.27;2.23;;;;;;;6.07;45.36;96528.41;5046825;28;20331;-71
2022/03/06 10:38:19;;;;;;;8.43;3.63;;;;;;;5.82;45.27;96523.00;5052622;28;20209;-71
2022/03/06 10:40:48;;;;;;;4.57;2.10;;;;;;;5.75;46.93;96524.50;5053293;28;20209;-71
2022/03/06 10:43:19;;;;;;;3.70;1.90;;;;;;;5.99;46.32;96523.09;5051008;28;20231;-71
2022/03/06 10:45:48;;;;;;;6.87;2.67;;;;;;;5.83;45.80;96524.63;5050317;28;20554;-71
2022/03/06 10:48:14;;;;;;;7.50;2.87;;;;;;;5.97;45.01;96521.56;5051941;28;20205;-71
2022/03/06 10:50:41;;;;;;;4.40;1.93;;;;;;;6.02;46.33;96521.97;5052911;28;20288;-71
2022/03/06 10:53:21;;;;;;;3.97;2.33;;;;;;;6.23;44.97;96526.84;5050733;28;20228;-71
2022/03/06 10:55:49;;;;;;;7.70;3.10;;;;;;;6.16;44.70;96525.78;5049303;28;20205;-71
2022/03/06 10:58:16;;;;;;;5.03;3.40;;;;;;;5.41;45.71;96532.94;5050820;28;20216;-71
2022/03/06 11:00:43;;;;;;;5.17;2.07;;;;;;;5.00;46.60;96527.97;5051871;28;20216;-72
2022/03/06 11:03:12;;;;;;;4.70;2.63;;;;;;;4.87;46.63;96530.88;5050360;28;20236;-72
2022/03/06 11:05:42;;;;;;;9.30;2.77;;;;;;;5.10;46.99;96531.44;5050358;28;20193;-71
2022/03/06 11:08:09;;;;;;;6.40;3.00;;;;;;;4.69;47.26;96523.81;5049145;28;20666;-71
2022/03/06 11:10:36;;;;;;;2.33;1.20;;;;;;;4.77;47.39;96518.75;5049353;28;20205;-71
2022/03/06 11:13:05;;;;;;;6.83;2.20;;;;;;;4.99;46.75;96521.94;5051206;28;20232;-71
2022/03/06 11:15:32;;;;;;;4.73;2.87;;;;;;;5.07;46.93;96527.28;5051009;28;20243;-71
2022/03/06 11:18:01;;;;;;;6.70;4.20;;;;;;;4.93;46.86;96519.06;5049769;28;20220;-72
2022/03/06 11:20:29;;;;;;;4.60;2.47;;;;;;;5.28;46.43;96514.91;5048884;28;20669;-72
2022/03/06 11:23:03;;;;;;;5.23;2.13;;;;;;;5.58;46.84;96507.72;5049285;28;20225;-72
2022/03/06 11:25:31;;;;;;;2.67;2.07;;;;;;;6.07;48.20;96516.19;5048222;28;20205;-71
2022/03/06 11:28:18;;;;;;;2.23;2.03;;;;;;;6.64;45.70;96515.91;5048978;28;20232;-71
2022/03/06 11:30:45;;;;;;;4.53;2.70;;;;;;;6.53;46.23;96512.66;5046157;28;20201;-71
2022/03/06 11:33:12;;;;;;;16.63;3.67;;;;;;;6.22;44.13;96512.16;5046566;28;20225;-71
2022/03/06 11:35:41;;;;;;;10.57;4.00;;;;;;;6.49;45.23;96506.06;5046677;28;20215;-71